Home > Products > Valid Products > FWO

000
SHUS65 KGJT 202016
FWOGJT

DAILY FIRE WEATHER OBSERVATION
NATIONAL WEATHER SERVICE GRAND JUNCTION CO
212 PM MDT MON OCT 20 2014

STATE OF THE WEATHER (W)               1
DRY BULB TEMPERATURE                   69   DEGREES FAHRENHEIT
RELATIVE HUMIDITY (RH)                 35   PERCENT
LIGHTNING ACTIVITY LEVEL
  (LAL - MIDNIGHT TO 2 PM)             1
WIND DIRECTION                         290  DEGREES (C IF CALM)
WIND SPEED                             5    MPH
MAX TEMP (2 PM - 2 PM)                 75   DEGREES FAHRENHEIT
MIN TEMP (2 PM - 2 PM)                 41   DEGREES FAHRENHEIT
MAX RH (2 PM - 2 PM)                   65   PERCENT
MIN RH (2 PM - 2 PM)                   28   PERCENT
PCPN DURATION                          0.0  HOURS
PCPN AMT (2 PM - 2 PM)                 0.0  INCHES
LAL (2 PM - 2 PM)                      1

$$

METAR KGJT 201753Z 14004KT 10SM CLR 19/07 A3016 RMK AO2 SLP170
      T01890067 10189 20050 58004




000
SHUS65 KGJT 192017
FWOGJT

DAILY FIRE WEATHER OBSERVATION
NATIONAL WEATHER SERVICE GRAND JUNCTION CO
212 PM MDT SUN OCT 19 2014

STATE OF THE WEATHER (W)               1
DRY BULB TEMPERATURE                   73   DEGREES FAHRENHEIT
RELATIVE HUMIDITY (RH)                 34   PERCENT
LIGHTNING ACTIVITY LEVEL
  (LAL - MIDNIGHT TO 2 PM)             1
WIND DIRECTION                         C    DEGREES (C IF CALM)
WIND SPEED                             0    MPH
MAX TEMP (2 PM - 2 PM)                 73   DEGREES FAHRENHEIT
MIN TEMP (2 PM - 2 PM)                 49   DEGREES FAHRENHEIT
MAX RH (2 PM - 2 PM)                   59   PERCENT
MIN RH (2 PM - 2 PM)                   27   PERCENT
PCPN DURATION                          0.0  HOURS
PCPN AMT (2 PM - 2 PM)                 0.0  INCHES
LAL (2 PM - 2 PM)                      1

$$

METAR KGJT 191953Z 00000KT 10SM CLR 23/06 A3007 RMK AO2 SLP132
      T02280061




000
SHUS65 KGJT 192017
FWOGJT

DAILY FIRE WEATHER OBSERVATION
NATIONAL WEATHER SERVICE GRAND JUNCTION CO
212 PM MDT SUN OCT 19 2014

STATE OF THE WEATHER (W)               1
DRY BULB TEMPERATURE                   73   DEGREES FAHRENHEIT
RELATIVE HUMIDITY (RH)                 34   PERCENT
LIGHTNING ACTIVITY LEVEL
  (LAL - MIDNIGHT TO 2 PM)             1
WIND DIRECTION                         C    DEGREES (C IF CALM)
WIND SPEED                             0    MPH
MAX TEMP (2 PM - 2 PM)                 73   DEGREES FAHRENHEIT
MIN TEMP (2 PM - 2 PM)                 49   DEGREES FAHRENHEIT
MAX RH (2 PM - 2 PM)                   59   PERCENT
MIN RH (2 PM - 2 PM)                   27   PERCENT
PCPN DURATION                          0.0  HOURS
PCPN AMT (2 PM - 2 PM)                 0.0  INCHES
LAL (2 PM - 2 PM)                      1

$$

METAR KGJT 191953Z 00000KT 10SM CLR 23/06 A3007 RMK AO2 SLP132
      T02280061





000
SHUS65 KGJT 182014
FWOGJT

DAILY FIRE WEATHER OBSERVATION
NATIONAL WEATHER SERVICE GRAND JUNCTION CO
214 PM MDT SAT OCT 18 2014

STATE OF THE WEATHER (W)               2
DRY BULB TEMPERATURE                   69   DEGREES FAHRENHEIT
RELATIVE HUMIDITY (RH)                 33   PERCENT
LIGHTNING ACTIVITY LEVEL
  (LAL - MIDNIGHT TO 2 PM)             1
WIND DIRECTION                         315  DEGREES (C IF CALM)
WIND SPEED                             5    MPH
MAX TEMP (2 PM - 2 PM)                 74   DEGREES FAHRENHEIT
MIN TEMP (2 PM - 2 PM)                 44   DEGREES FAHRENHEIT
MAX RH (2 PM - 2 PM)                   51   PERCENT
MIN RH (2 PM - 2 PM)                   26   PERCENT
PCPN DURATION                          0.0  HOURS
PCPN AMT (2 PM - 2 PM)                 0.0  INCHES
LAL (2 PM - 2 PM)                      1

$$

METAR KGJT 181953Z 31004KT 10SM FEW120 21/04 A3008 RMK AO2
      SLP142 T02060039




000
SHUS65 KGJT 182014
FWOGJT

DAILY FIRE WEATHER OBSERVATION
NATIONAL WEATHER SERVICE GRAND JUNCTION CO
214 PM MDT SAT OCT 18 2014

STATE OF THE WEATHER (W)               2
DRY BULB TEMPERATURE                   69   DEGREES FAHRENHEIT
RELATIVE HUMIDITY (RH)                 33   PERCENT
LIGHTNING ACTIVITY LEVEL
  (LAL - MIDNIGHT TO 2 PM)             1
WIND DIRECTION                         315  DEGREES (C IF CALM)
WIND SPEED                             5    MPH
MAX TEMP (2 PM - 2 PM)                 74   DEGREES FAHRENHEIT
MIN TEMP (2 PM - 2 PM)                 44   DEGREES FAHRENHEIT
MAX RH (2 PM - 2 PM)                   51   PERCENT
MIN RH (2 PM - 2 PM)                   26   PERCENT
PCPN DURATION                          0.0  HOURS
PCPN AMT (2 PM - 2 PM)                 0.0  INCHES
LAL (2 PM - 2 PM)                      1

$$

METAR KGJT 181953Z 31004KT 10SM FEW120 21/04 A3008 RMK AO2
      SLP142 T02060039





    US Dept of Commerce
    National Oceanic and Atmospheric Administration
    National Weather Service
    1325 East West Highway
    Silver Spring, MD 20910
    Page Author: NWS Internet Services Team
Disclaimer
Information Quality
Credits
Glossary
Privacy Policy
Freedom of Information Act (FOIA)
About Us
Career Opportunities